sensor_id;sensor_type;location;lat;lon;timestamp;pressure;altitude;pressure_sealevel;temperature;humidity
74372;BME280;62885;51.374;6.170;2023-04-01T00:01:57;98972.28;;;10.03;97.64
74372;BME280;62885;51.374;6.170;2023-04-01T00:04:22;98961.31;;;10.06;97.89
74372;BME280;62885;51.374;6.170;2023-04-01T00:06:47;98958.88;;;9.95;98.43
74372;BME280;62885;51.374;6.170;2023-04-01T00:09:13;98966.22;;;9.93;98.06
74372;BME280;62885;51.374;6.170;2023-04-01T00:11:39;98966.09;;;10.02;98.46
74372;BME280;62885;51.374;6.170;2023-04-01T00:14:05;98959.72;;;9.95;98.48
74372;BME280;62885;51.374;6.170;2023-04-01T00:16:31;98968.19;;;9.90;99.15
74372;BME280;62885;51.374;6.170;2023-04-01T00:18:56;98965.84;;;9.87;99.57
74372;BME280;62885;51.374;6.170;2023-04-01T00:21:22;98963.63;;;9.83;99.90
74372;BME280;62885;51.374;6.170;2023-04-01T00:23:49;98964.16;;;9.86;100.00
74372;BME280;62885;51.374;6.170;2023-04-01T00:26:15;98968.00;;;9.84;100.00
74372;BME280;62885;51.374;6.170;2023-04-01T00:28:44;98962.78;;;9.82;100.00
74372;BME280;62885;51.374;6.170;2023-04-01T00:31:10;98962.84;;;9.90;99.95
74372;BME280;62885;51.374;6.170;2023-04-01T00:33:37;98958.88;;;9.95;99.89
74372;BME280;62885;51.374;6.170;2023-04-01T00:36:13;98957.06;;;9.95;99.73
74372;BME280;62885;51.374;6.170;2023-04-01T00:38:39;98957.81;;;9.87;99.73
74372;BME280;62885;51.374;6.170;2023-04-01T00:41:06;98956.84;;;9.88;99.65
74372;BME280;62885;51.374;6.170;2023-04-01T00:43:31;98949.66;;;9.89;99.72
74372;BME280;62885;51.374;6.170;2023-04-01T00:45:57;98960.34;;;9.89;99.26
74372;BME280;62885;51.374;6.170;2023-04-01T00:48:25;98941.94;;;9.86;99.82
74372;BME280;62885;51.374;6.170;2023-04-01T00:51:16;98951.63;;;9.87;99.06
74372;BME280;62885;51.374;6.170;2023-04-01T00:53:41;98948.50;;;9.92;99.15
74372;BME280;62885;51.374;6.170;2023-04-01T00:56:18;98952.84;;;9.93;98.27
74372;BME280;62885;51.374;6.170;2023-04-01T00:58:59;98957.69;;;9.89;98.86
74372;BME280;62885;51.374;6.170;2023-04-01T01:01:26;98948.63;;;9.90;98.89
74372;BME280;62885;51.374;6.170;2023-04-01T01:03:53;98949.88;;;9.96;98.81
74372;BME280;62885;51.374;6.170;2023-04-01T01:12:05;98959.50;;;9.88;99.04
74372;BME280;62885;51.374;6.170;2023-04-01T01:30:59;98962.78;;;9.82;99.04
74372;BME280;62885;51.374;6.170;2023-04-01T01:33:39;98963.31;;;9.86;99.10
74372;BME280;62885;51.374;6.170;2023-04-01T01:36:11;98957.75;;;9.79;99.75
74372;BME280;62885;51.374;6.170;2023-04-01T01:38:38;98969.75;;;9.75;99.81
74372;BME280;62885;51.374;6.170;2023-04-01T01:41:05;98972.75;;;9.72;100.00
74372;BME280;62885;51.374;6.170;2023-04-01T01:43:38;98962.50;;;9.68;100.00
74372;BME280;62885;51.374;6.170;2023-04-01T01:46:25;98971.81;;;9.64;100.00
74372;BME280;62885;51.374;6.170;2023-04-01T01:48:54;98966.78;;;9.61;100.00
74372;BME280;62885;51.374;6.170;2023-04-01T01:51:21;98969.16;;;9.64;100.00
74372;BME280;62885;51.374;6.170;2023-04-01T01:53:49;98972.13;;;9.61;100.00
74372;BME280;62885;51.374;6.170;2023-04-01T01:56:16;98978.69;;;9.66;100.00
74372;BME280;62885;51.374;6.170;2023-04-01T01:58:46;98974.81;;;9.61;100.00
74372;BME280;62885;51.374;6.170;2023-04-01T02:01:18;98977.47;;;9.61;100.00
74372;BME280;62885;51.374;6.170;2023-04-01T02:03:46;98984.78;;;9.59;100.00
74372;BME280;62885;51.374;6.170;2023-04-01T02:06:16;98975.09;;;9.58;100.00
74372;BME280;62885;51.374;6.170;2023-04-01T02:08:46;98980.28;;;9.59;100.00
74372;BME280;62885;51.374;6.170;2023-04-01T02:11:16;98974.34;;;9.65;100.00
74372;BME280;62885;51.374;6.170;2023-04-01T02:13:56;98983.44;;;9.55;100.00
74372;BME280;62885;51.374;6.170;2023-04-01T02:17:09;98978.22;;;9.53;100.00
74372;BME280;62885;51.374;6.170;2023-04-01T02:19:42;98993.09;;;9.56;100.00
74372;BME280;62885;51.374;6.170;2023-04-01T02:22:14;98986.09;;;9.55;100.00
74372;BME280;62885;51.374;6.170;2023-04-01T02:24:42;98987.22;;;9.52;100.00
74372;BME280;62885;51.374;6.170;2023-04-01T02:27:09;98996.09;;;9.53;100.00
74372;BME280;62885;51.374;6.170;2023-04-01T02:29:35;98991.72;;;9.52;100.00
74372;BME280;62885;51.374;6.170;2023-04-01T02:32:02;98995.25;;;9.52;100.00
74372;BME280;62885;51.374;6.170;2023-04-01T02:34:27;98994.25;;;9.53;100.00
74372;BME280;62885;51.374;6.170;2023-04-01T02:36:54;98997.91;;;9.52;100.00
74372;BME280;62885;51.374;6.170;2023-04-01T02:39:20;98994.25;;;9.53;100.00
74372;BME280;62885;51.374;6.170;2023-04-01T02:41:46;98993.09;;;9.56;100.00
74372;BME280;62885;51.374;6.170;2023-04-01T02:44:13;98988.78;;;9.55;100.00
74372;BME280;62885;51.374;6.170;2023-04-01T02:46:39;98995.34;;;9.60;100.00
74372;BME280;62885;51.374;6.170;2023-04-01T02:49:05;98999.97;;;9.58;100.00
74372;BME280;62885;51.374;6.170;2023-04-01T02:51:31;98998.69;;;9.62;100.00
74372;BME280;62885;51.374;6.170;2023-04-01T02:53:56;98992.34;;;9.63;100.00
74372;BME280;62885;51.374;6.170;2023-04-01T02:56:22;98999.53;;;9.63;100.00
74372;BME280;62885;51.374;6.170;2023-04-01T02:58:48;98998.53;;;9.64;100.00
74372;BME280;62885;51.374;6.170;2023-04-01T03:01:14;98994.88;;;9.65;100.00
74372;BME280;62885;51.374;6.170;2023-04-01T03:03:39;98998.53;;;9.64;100.00
74372;BME280;62885;51.374;6.170;2023-04-01T03:06:10;99002.56;;;9.68;100.00
74372;BME280;62885;51.374;6.170;2023-04-01T03:08:36;98996.69;;;9.64;100.00
74372;BME280;62885;51.374;6.170;2023-04-01T03:11:02;99002.06;;;9.64;100.00
74372;BME280;62885;51.374;6.170;2023-04-01T03:13:27;99002.88;;;9.65;100.00
74372;BME280;62885;51.374;6.170;2023-04-01T03:15:52;99011.06;;;9.63;100.00
74372;BME280;62885;51.374;6.170;2023-04-01T03:18:18;99016.41;;;9.63;100.00
74372;BME280;62885;51.374;6.170;2023-04-01T03:20:43;99011.75;;;9.65;100.00
74372;BME280;62885;51.374;6.170;2023-04-01T03:23:09;99021.59;;;9.65;100.00
74372;BME280;62885;51.374;6.170;2023-04-01T03:25:34;99010.53;;;9.60;100.00
74372;BME280;62885;51.374;6.170;2023-04-01T03:28:00;99018.53;;;9.60;100.00
74372;BME280;62885;51.374;6.170;2023-04-01T03:30:26;99019.66;;;9.57;100.00
74372;BME280;62885;51.374;6.170;2023-04-01T03:32:51;99023.19;;;9.58;100.00
74372;BME280;62885;51.374;6.170;2023-04-01T03:35:17;99023.94;;;9.50;100.00
74372;BME280;62885;51.374;6.170;2023-04-01T03:37:43;99021.25;;;9.50;100.00
74372;BME280;62885;51.374;6.170;2023-04-01T03:40:08;99018.16;;;9.55;100.00
74372;BME280;62885;51.374;6.170;2023-04-01T03:42:34;99026.47;;;9.52;100.00
74372;BME280;62885;51.374;6.170;2023-04-01T03:45:00;99028.28;;;9.51;100.00
74372;BME280;62885;51.374;6.170;2023-04-01T03:47:25;99026.31;;;9.53;100.00
74372;BME280;62885;51.374;6.170;2023-04-01T03:49:51;99024.63;;;9.52;100.00
74372;BME280;62885;51.374;6.170;2023-04-01T03:52:16;99029.28;;;9.50;100.00
74372;BME280;62885;51.374;6.170;2023-04-01T03:54:41;99033.09;;;9.47;100.00
74372;BME280;62885;51.374;6.170;2023-04-01T03:57:07;99028.75;;;9.46;100.00
74372;BME280;62885;51.374;6.170;2023-04-01T03:59:32;99031.41;;;9.46;100.00
74372;BME280;62885;51.374;6.170;2023-04-01T04:01:58;99026.22;;;9.45;100.00
74372;BME280;62885;51.374;6.170;2023-04-01T04:04:23;99033.25;;;9.46;100.00
74372;BME280;62885;51.374;6.170;2023-04-01T04:06:49;99030.72;;;9.44;100.00
74372;BME280;62885;51.374;6.170;2023-04-01T04:09:14;99032.41;;;9.45;100.00
74372;BME280;62885;51.374;6.170;2023-04-01T04:11:39;99037.88;;;9.44;100.00
74372;BME280;62885;51.374;6.170;2023-04-01T04:14:05;99040.28;;;9.47;100.00
74372;BME280;62885;51.374;6.170;2023-04-01T04:16:30;99043.66;;;9.49;100.00
74372;BME280;62885;51.374;6.170;2023-04-01T04:18:56;99035.63;;;9.49;100.00
74372;BME280;62885;51.374;6.170;2023-04-01T04:21:21;99052.34;;;9.51;100.00
74372;BME280;62885;51.374;6.170;2023-04-01T04:23:46;99049.81;;;9.49;100.00
74372;BME280;62885;51.374;6.170;2023-04-01T04:26:14;99047.13;;;9.49;100.00
74372;BME280;62885;51.374;6.170;2023-04-01T04:28:40;99048.16;;;9.48;100.00
74372;BME280;62885;51.374;6.170;2023-04-01T04:31:05;99048.28;;;9.47;100.00
74372;BME280;62885;51.374;6.170;2023-04-01T04:33:32;99050.97;;;9.47;100.00
74372;BME280;62885;51.374;6.170;2023-04-01T04:35:58;99050.97;;;9.47;100.00
74372;BME280;62885;51.374;6.170;2023-04-01T04:38:24;99050.41;;;9.43;100.00
74372;BME280;62885;51.374;6.170;2023-04-01T04:40:50;99049.03;;;9.39;100.00
74372;BME280;62885;51.374;6.170;2023-04-01T04:43:17;99058.03;;;9.38;100.00
74372;BME280;62885;51.374;6.170;2023-04-01T04:45:42;99060.69;;;9.38;100.00
74372;BME280;62885;51.374;6.170;2023-04-01T04:48:09;99063.22;;;9.40;100.00
74372;BME280;62885;51.374;6.170;2023-04-01T04:50:35;99064.38;;;9.37;100.00
74372;BME280;62885;51.374;6.170;2023-04-01T04:53:00;99062.53;;;9.38;100.00
74372;BME280;62885;51.374;6.170;2023-04-01T04:55:26;99069.41;;;9.40;100.00
74372;BME280;62885;51.374;6.170;2023-04-01T04:57:51;99068.28;;;9.43;100.00
74372;BME280;62885;51.374;6.170;2023-04-01T05:00:17;99069.94;;;9.44;100.00
74372;BME280;62885;51.374;6.170;2023-04-01T05:02:42;99074.75;;;9.40;100.00
74372;BME280;62885;51.374;6.170;2023-04-01T05:05:08;99074.22;;;9.37;100.00
74372;BME280;62885;51.374;6.170;2023-04-01T05:07:34;99080.09;;;9.40;100.00
74372;BME280;62885;51.374;6.170;2023-04-01T05:09:59;99078.72;;;9.36;100.00
74372;BME280;62885;51.374;6.170;2023-04-01T05:12:25;99078.88;;;9.35;100.00
74372;BME280;62885;51.374;6.170;2023-04-01T05:14:50;99088.44;;;9.37;100.00
74372;BME280;62885;51.374;6.170;2023-04-01T05:17:16;99088.69;;;9.34;100.00
74372;BME280;62885;51.374;6.170;2023-04-01T05:19:41;99087.16;;;9.32;100.00
74372;BME280;62885;51.374;6.170;2023-04-01T05:22:06;99092.22;;;9.35;100.00
74372;BME280;62885;51.374;6.170;2023-04-01T05:24:32;99091.38;;;9.34;100.00
74372;BME280;62885;51.374;6.170;2023-04-01T05:26:58;99094.50;;;9.30;100.00
74372;BME280;62885;51.374;6.170;2023-04-01T05:29:25;99096.84;;;9.33;100.00
74372;BME280;62885;51.374;6.170;2023-04-01T05:31:51;99090.66;;;9.32;100.00
74372;BME280;62885;51.374;6.170;2023-04-01T05:34:16;99093.50;;;9.31;100.00
74372;BME280;62885;51.374;6.170;2023-04-01T05:36:42;99093.13;;;9.26;100.00
74372;BME280;62885;51.374;6.170;2023-04-01T05:39:08;99099.44;;;9.25;100.00
74372;BME280;62885;51.374;6.170;2023-04-01T05:41:37;99095.22;;;9.22;100.00
74372;BME280;62885;51.374;6.170;2023-04-01T05:44:04;99099.44;;;9.25;100.00
74372;BME280;62885;51.374;6.170;2023-04-01T05:46:29;99098.47;;;9.26;100.00
74372;BME280;62885;51.374;6.170;2023-04-01T05:48:55;99103.25;;;9.22;100.00
74372;BME280;62885;51.374;6.170;2023-04-01T05:51:20;99105.78;;;9.24;100.00
74372;BME280;62885;51.374;6.170;2023-04-01T05:53:46;99109.16;;;9.26;100.00
74372;BME280;62885;51.374;6.170;2023-04-01T05:56:11;99113.31;;;9.28;100.00
74372;BME280;62885;51.374;6.170;2023-04-01T05:58:37;99107.28;;;9.26;100.00
74372;BME280;62885;51.374;6.170;2023-04-01T06:01:07;99115.28;;;9.26;100.00
74372;BME280;62885;51.374;6.170;2023-04-01T06:03:33;99118.66;;;9.28;100.00
74372;BME280;62885;51.374;6.170;2023-04-01T06:05:59;99116.13;;;9.27;100.00
74372;BME280;62885;51.374;6.170;2023-04-01T06:08:26;99119.81;;;9.26;100.00
74372;BME280;62885;51.374;6.170;2023-04-01T06:30:20;99150.00;;;9.36;100.00
74372;BME280;62885;51.374;6.170;2023-04-01T06:35:06;99158.69;;;9.38;100.00
74372;BME280;62885;51.374;6.170;2023-04-01T06:46:03;99158.16;;;9.34;100.00
74372;BME280;62885;51.374;6.170;2023-04-01T06:48:53;99165.44;;;9.32;100.00
74372;BME280;62885;51.374;6.170;2023-04-01T06:54:03;99178.97;;;9.31;100.00
74372;BME280;62885;51.374;6.170;2023-04-01T06:56:30;99179.09;;;9.29;100.00
74372;BME280;62885;51.374;6.170;2023-04-01T06:59:20;99182.50;;;9.31;100.00
74372;BME280;62885;51.374;6.170;2023-04-01T07:01:51;99179.81;;;9.31;100.00
74372;BME280;62885;51.374;6.170;2023-04-01T07:04:32;99182.88;;;9.36;100.00
74372;BME280;62885;51.374;6.170;2023-04-01T07:07:01;99193.16;;;9.31;100.00
74372;BME280;62885;51.374;6.170;2023-04-01T07:09:36;99196.50;;;9.33;100.00
74372;BME280;62885;51.374;6.170;2023-04-01T07:12:12;99188.63;;;9.32;100.00
74372;BME280;62885;51.374;6.170;2023-04-01T07:14:41;99187.91;;;9.39;100.00
74372;BME280;62885;51.374;6.170;2023-04-01T07:17:36;99201.84;;;9.43;100.00
74372;BME280;62885;51.374;6.170;2023-04-01T07:20:20;99199.44;;;9.40;100.00
74372;BME280;62885;51.374;6.170;2023-04-01T07:22:49;99197.75;;;9.39;100.00
74372;BME280;62885;51.374;6.170;2023-04-01T07:25:26;99204.09;;;9.38;100.00
74372;BME280;62885;51.374;6.170;2023-04-01T07:27:59;99214.63;;;9.39;100.00
74372;BME280;62885;51.374;6.170;2023-04-01T07:30:27;99217.03;;;9.42;100.00
74372;BME280;62885;51.374;6.170;2023-04-01T07:33:10;99215.47;;;9.40;100.00
74372;BME280;62885;51.374;6.170;2023-04-01T07:35:43;99223.75;;;9.46;100.00
74372;BME280;62885;51.374;6.170;2023-04-01T07:44:05;99232.03;;;9.43;100.00
74372;BME280;62885;51.374;6.170;2023-04-01T07:51:59;99248.06;;;9.43;100.00
74372;BME280;62885;51.374;6.170;2023-04-01T07:54:46;99249.34;;;9.49;100.00
74372;BME280;62885;51.374;6.170;2023-04-01T08:11:07;99277.00;;;9.58;100.00
74372;BME280;62885;51.374;6.170;2023-04-01T08:13:42;99280.06;;;9.63;100.00
74372;BME280;62885;51.374;6.170;2023-04-01T08:21:49;99291.41;;;9.84;100.00
74372;BME280;62885;51.374;6.170;2023-04-01T08:24:29;99285.63;;;9.88;100.00
74372;BME280;62885;51.374;6.170;2023-04-01T08:26:59;99293.59;;;9.98;100.00
74372;BME280;62885;51.374;6.170;2023-04-01T08:29:37;99292.16;;;10.04;100.00
74372;BME280;62885;51.374;6.170;2023-04-01T08:34:37;99309.44;;;10.09;100.00
74372;BME280;62885;51.374;6.170;2023-04-01T08:37:14;99309.44;;;10.09;100.00
74372;BME280;62885;51.374;6.170;2023-04-01T08:39:53;99314.66;;;10.11;100.00
74372;BME280;62885;51.374;6.170;2023-04-01T08:42:38;99317.84;;;10.14;100.00
74372;BME280;62885;51.374;6.170;2023-04-01T09:01:31;99338.25;;;10.25;99.86
74372;BME280;62885;51.374;6.170;2023-04-01T09:35:23;99371.91;;;10.27;100.00
74372;BME280;62885;51.374;6.170;2023-04-01T09:40:58;99377.81;;;10.21;100.00
74372;BME280;62885;51.374;6.170;2023-04-01T10:00:24;99390.81;;;10.44;100.00
74372;BME280;62885;51.374;6.170;2023-04-01T10:14:37;99410.81;;;10.77;98.88
74372;BME280;62885;51.374;6.170;2023-04-01T10:31:56;99431.13;;;10.97;97.96
74372;BME280;62885;51.374;6.170;2023-04-01T10:36:53;99435.16;;;11.01;97.44
74372;BME280;62885;51.374;6.170;2023-04-01T10:48:01;99444.72;;;10.86;98.40
74372;BME280;62885;51.374;6.170;2023-04-01T10:58:59;99464.28;;;10.59;99.24
74372;BME280;62885;51.374;6.170;2023-04-01T11:02:00;99462.75;;;10.56;100.00
74372;BME280;62885;51.374;6.170;2023-04-01T11:36:03;99498.25;;;10.49;100.00
74372;BME280;62885;51.374;6.170;2023-04-01T11:46:52;99509.78;;;10.59;99.53
74372;BME280;62885;51.374;6.170;2023-04-01T12:05:22;99541.41;;;10.73;98.78
74372;BME280;62885;51.374;6.170;2023-04-01T12:11:14;99534.44;;;10.90;98.30
74372;BME280;62885;51.374;6.170;2023-04-01T12:14:16;99546.31;;;10.87;98.33
74372;BME280;62885;51.374;6.170;2023-04-01T12:16:52;99546.72;;;10.92;97.74
74372;BME280;62885;51.374;6.170;2023-04-01T12:19:28;99548.94;;;10.97;98.14
74372;BME280;62885;51.374;6.170;2023-04-01T12:24:47;99552.91;;;10.93;98.08
74372;BME280;62885;51.374;6.170;2023-04-01T12:27:23;99555.88;;;10.90;97.64
74372;BME280;62885;51.374;6.170;2023-04-01T12:30:05;99568.72;;;10.86;97.10
74372;BME280;62885;51.374;6.170;2023-04-01T12:33:02;99557.56;;;10.91;97.64
74372;BME280;62885;51.374;6.170;2023-04-01T12:38:26;99566.56;;;10.99;97.74
74372;BME280;62885;51.374;6.170;2023-04-01T12:41:08;99573.63;;;11.00;96.85
74372;BME280;62885;51.374;6.170;2023-04-01T12:51:50;99577.88;;;10.93;97.59
74372;BME280;62885;51.374;6.170;2023-04-01T13:02:45;99594.59;;;11.05;96.13
74372;BME280;62885;51.374;6.170;2023-04-01T13:11:30;99596.44;;;11.04;95.58
74372;BME280;62885;51.374;6.170;2023-04-01T13:14:16;99606.09;;;11.15;95.34
74372;BME280;62885;51.374;6.170;2023-04-01T13:16:52;99600.88;;;11.23;94.76
74372;BME280;62885;51.374;6.170;2023-04-01T13:22:25;99611.59;;;11.23;95.23
74372;BME280;62885;51.374;6.170;2023-04-01T13:38:04;99630.59;;;11.30;95.57
74372;BME280;62885;51.374;6.170;2023-04-01T13:40:39;99627.34;;;11.26;95.44
74372;BME280;62885;51.374;6.170;2023-04-01T13:43:31;99631.88;;;11.26;95.58
74372;BME280;62885;51.374;6.170;2023-04-01T13:49:16;99637.41;;;11.15;95.61
74372;BME280;62885;51.374;6.170;2023-04-01T13:54:48;99642.81;;;11.05;96.92
74372;BME280;62885;51.374;6.170;2023-04-01T13:57:47;99648.84;;;11.07;97.34
74372;BME280;62885;51.374;6.170;2023-04-01T14:00:32;99645.94;;;11.00;97.81
74372;BME280;62885;51.374;6.170;2023-04-01T14:11:13;99651.88;;;10.94;97.80
74372;BME280;62885;51.374;6.170;2023-04-01T14:14:20;99665.53;;;10.91;98.31
74372;BME280;62885;51.374;6.170;2023-04-01T14:17:20;99665.13;;;10.86;98.36
74372;BME280;62885;51.374;6.170;2023-04-01T14:20:13;99662.44;;;10.86;97.25
74372;BME280;62885;51.374;6.170;2023-04-01T14:22:52;99670.75;;;10.93;98.03
74372;BME280;62885;51.374;6.170;2023-04-01T14:28:40;99674.53;;;10.90;97.81
74372;BME280;62885;51.374;6.170;2023-04-01T14:44:01;99690.34;;;10.84;98.52
74372;BME280;62885;51.374;6.170;2023-04-01T14:46:17;99691.88;;;10.86;99.48
74372;BME280;62885;51.374;6.170;2023-04-01T14:48:59;99697.25;;;10.86;99.58
74372;BME280;62885;51.374;6.170;2023-04-01T14:51:34;99696.53;;;10.84;99.56
74372;BME280;62885;51.374;6.170;2023-04-01T14:56:41;99710.09;;;10.83;99.99
74372;BME280;62885;51.374;6.170;2023-04-01T15:04:58;99708.94;;;10.66;100.00
74372;BME280;62885;51.374;6.170;2023-04-01T15:07:58;99724.75;;;10.69;100.00
74372;BME280;62885;51.374;6.170;2023-04-01T15:25:22;99742.78;;;10.57;100.00
74372;BME280;62885;51.374;6.170;2023-04-01T15:30:35;99749.69;;;10.60;100.00
74372;BME280;62885;51.374;6.170;2023-04-01T15:33:23;99766.31;;;10.63;100.00
74372;BME280;62885;51.374;6.170;2023-04-01T15:38:34;99764.31;;;10.56;100.00
74372;BME280;62885;51.374;6.170;2023-04-01T15:43:42;99779.13;;;10.60;100.00
74372;BME280;62885;51.374;6.170;2023-04-01T15:51:16;99784.50;;;10.60;100.00
74372;BME280;62885;51.374;6.170;2023-04-01T15:59:20;99786.31;;;10.59;100.00
74372;BME280;62885;51.374;6.170;2023-04-01T16:02:46;99783.63;;;10.59;100.00
74372;BME280;62885;51.374;6.170;2023-04-01T16:15:26;99809.56;;;10.59;100.00
74372;BME280;62885;51.374;6.170;2023-04-01T16:18:22;99806.44;;;10.54;100.00
74372;BME280;62885;51.374;6.170;2023-04-01T16:20:57;99813.34;;;10.56;100.00
74372;BME280;62885;51.374;6.170;2023-04-01T16:23:49;99810.25;;;10.51;100.00
74372;BME280;62885;51.374;6.170;2023-04-01T16:26:22;99810.53;;;10.58;100.00
74372;BME280;62885;51.374;6.170;2023-04-01T16:29:11;99810.78;;;10.55;100.00
74372;BME280;62885;51.374;6.170;2023-04-01T16:31:48;99820.66;;;10.54;100.00
74372;BME280;62885;51.374;6.170;2023-04-01T16:34:38;99812.63;;;10.45;100.00
74372;BME280;62885;51.374;6.170;2023-04-01T16:37:13;99822.78;;;10.51;100.00
74372;BME280;62885;51.374;6.170;2023-04-01T16:40:22;99824.28;;;10.44;100.00
74372;BME280;62885;51.374;6.170;2023-04-01T16:42:56;99830.38;;;10.46;100.00
74372;BME280;62885;51.374;6.170;2023-04-01T16:45:37;99833.03;;;10.46;100.00
74372;BME280;62885;51.374;6.170;2023-04-01T16:48:15;99833.03;;;10.46;100.00
74372;BME280;62885;51.374;6.170;2023-04-01T16:50:58;99840.94;;;10.47;100.00
74372;BME280;62885;51.374;6.170;2023-04-01T16:53:34;99838.94;;;10.40;100.00
74372;BME280;62885;51.374;6.170;2023-04-01T16:58:56;99855.72;;;10.42;100.00
74372;BME280;62885;51.374;6.170;2023-04-01T17:01:27;99862.19;;;10.39;100.00
74372;BME280;62885;51.374;6.170;2023-04-01T17:04:06;99862.19;;;10.39;100.00
74372;BME280;62885;51.374;6.170;2023-04-01T17:06:46;99868.09;;;10.43;100.00
74372;BME280;62885;51.374;6.170;2023-04-01T17:12:03;99870.06;;;10.41;100.00
74372;BME280;62885;51.374;6.170;2023-04-01T17:14:54;99876.41;;;10.40;100.00
74372;BME280;62885;51.374;6.170;2023-04-01T17:22:57;99887.09;;;10.40;100.00
74372;BME280;62885;51.374;6.170;2023-04-01T17:26:21;99890.06;;;10.37;100.00
74372;BME280;62885;51.374;6.170;2023-04-01T17:28:50;99895.13;;;10.40;100.00
74372;BME280;62885;51.374;6.170;2023-04-01T17:42:16;99910.69;;;10.25;100.00
74372;BME280;62885;51.374;6.170;2023-04-01T17:50:24;99925.63;;;10.27;100.00
74372;BME280;62885;51.374;6.170;2023-04-01T18:01:09;99939.09;;;10.16;100.00
74372;BME280;62885;51.374;6.170;2023-04-01T18:04:04;99939.94;;;10.17;100.00
74372;BME280;62885;51.374;6.170;2023-04-01T18:12:01;99956.09;;;10.15;100.00
74372;BME280;62885;51.374;6.170;2023-04-01T18:23:04;99964.78;;;10.08;100.00
74372;BME280;62885;51.374;6.170;2023-04-01T18:25:39;99976.19;;;10.10;100.00
74372;BME280;62885;51.374;6.170;2023-04-01T18:28:20;99982.06;;;10.04;100.00
74372;BME280;62885;51.374;6.170;2023-04-01T18:30:54;99977.44;;;10.06;100.00
74372;BME280;62885;51.374;6.170;2023-04-01T18:36:09;99994.72;;;10.02;100.00
74372;BME280;62885;51.374;6.170;2023-04-01T18:38:47;100000.53;;;10.07;100.00
74372;BME280;62885;51.374;6.170;2023-04-01T18:52:45;100021.78;;;9.87;100.00
74372;BME280;62885;51.374;6.170;2023-04-01T18:55:32;100024.53;;;9.97;100.00
74372;BME280;62885;51.374;6.170;2023-04-01T18:58:11;100024.53;;;9.97;100.00
74372;BME280;62885;51.374;6.170;2023-04-01T19:00:45;100036.19;;;9.96;100.00
74372;BME280;62885;51.374;6.170;2023-04-01T19:03:24;100041.41;;;9.98;100.00
74372;BME280;62885;51.374;6.170;2023-04-01T19:05:53;100030.84;;;9.96;100.00
74372;BME280;62885;51.374;6.170;2023-04-01T19:08:35;100050.56;;;9.95;100.00
74372;BME280;62885;51.374;6.170;2023-04-01T19:11:35;100052.75;;;9.90;100.00
74372;BME280;62885;51.374;6.170;2023-04-01T19:17:15;100067.78;;;9.70;100.00
74372;BME280;62885;51.374;6.170;2023-04-01T19:27:48;100091.75;;;9.61;100.00
74372;BME280;62885;51.374;6.170;2023-04-01T19:30:17;100099.41;;;9.65;100.00
74372;BME280;62885;51.374;6.170;2023-04-01T19:36:03;100095.53;;;9.58;100.00
74372;BME280;62885;51.374;6.170;2023-04-01T19:38:41;100107.94;;;9.48;100.00
74372;BME280;62885;51.374;6.170;2023-04-01T19:47:04;100115.81;;;9.49;100.00
74372;BME280;62885;51.374;6.170;2023-04-01T19:52:39;100123.84;;;9.38;100.00
74372;BME280;62885;51.374;6.170;2023-04-01T19:55:26;100131.63;;;9.41;100.00
74372;BME280;62885;51.374;6.170;2023-04-01T19:58:21;100140.34;;;9.43;100.00
74372;BME280;62885;51.374;6.170;2023-04-01T20:00:55;100146.81;;;9.30;100.00
74372;BME280;62885;51.374;6.170;2023-04-01T20:03:50;100155.41;;;9.33;100.00
74372;BME280;62885;51.374;6.170;2023-04-01T20:06:54;100167.94;;;9.33;100.00
74372;BME280;62885;51.374;6.170;2023-04-01T20:09:29;100177.16;;;9.29;100.00
74372;BME280;62885;51.374;6.170;2023-04-01T20:14:58;100181.44;;;9.31;100.00
74372;BME280;62885;51.374;6.170;2023-04-01T20:17:31;100190.63;;;9.27;100.00
74372;BME280;62885;51.374;6.170;2023-04-01T20:20:42;100193.44;;;9.26;100.00
74372;BME280;62885;51.374;6.170;2023-04-01T20:28:14;100215.03;;;9.12;100.00
74372;BME280;62885;51.374;6.170;2023-04-01T20:52:45;100270.78;;;8.81;100.00
74372;BME280;62885;51.374;6.170;2023-04-01T21:06:20;100291.78;;;8.62;100.00
74372;BME280;62885;51.374;6.170;2023-04-01T21:09:06;100288.16;;;8.63;100.00
74372;BME280;62885;51.374;6.170;2023-04-01T21:11:53;100297.03;;;8.63;100.00
74372;BME280;62885;51.374;6.170;2023-04-01T21:17:06;100305.28;;;8.60;100.00
74372;BME280;62885;51.374;6.170;2023-04-01T21:22:29;100329.22;;;8.49;100.00
74372;BME280;62885;51.374;6.170;2023-04-01T21:49:15;100381.41;;;8.28;100.00
74372;BME280;62885;51.374;6.170;2023-04-01T22:00:30;100402.22;;;8.23;100.00
74372;BME280;62885;51.374;6.170;2023-04-01T22:05:46;100419.72;;;8.27;100.00
74372;BME280;62885;51.374;6.170;2023-04-01T22:16:35;100443.22;;;7.97;100.00
74372;BME280;62885;51.374;6.170;2023-04-01T22:24:50;100457.69;;;7.93;100.00
74372;BME280;62885;51.374;6.170;2023-04-01T22:27:21;100456.84;;;7.92;100.00
74372;BME280;62885;51.374;6.170;2023-04-01T22:29:58;100470.63;;;7.86;100.00
74372;BME280;62885;51.374;6.170;2023-04-01T22:32:42;100462.81;;;7.83;100.00
74372;BME280;62885;51.374;6.170;2023-04-01T22:38:01;100476.13;;;7.70;100.00
74372;BME280;62885;51.374;6.170;2023-04-01T22:40:58;100491.16;;;7.71;100.00
74372;BME280;62885;51.374;6.170;2023-04-01T22:48:46;100502.34;;;7.76;100.00
74372;BME280;62885;51.374;6.170;2023-04-01T22:54:28;100516.06;;;7.58;100.00
74372;BME280;62885;51.374;6.170;2023-04-01T22:57:03;100509.31;;;7.52;100.00
74372;BME280;62885;51.374;6.170;2023-04-01T22:59:43;100518.63;;;7.59;100.00
74372;BME280;62885;51.374;6.170;2023-04-01T23:02:16;100540.16;;;7.56;100.00
74372;BME280;62885;51.374;6.170;2023-04-01T23:04:51;100532.44;;;7.52;100.00
74372;BME280;62885;51.374;6.170;2023-04-01T23:10:41;100547.31;;;7.41;100.00
74372;BME280;62885;51.374;6.170;2023-04-01T23:13:19;100554.47;;;7.41;100.00
74372;BME280;62885;51.374;6.170;2023-04-01T23:15:47;100556.16;;;7.42;100.00